createdAt,value
2023-02-01T00:00:28.066Z,9.70
2023-02-01T00:02:54.662Z,9.95
2023-02-01T00:05:21.166Z,10.52
2023-02-01T00:07:49.778Z,10.40
2023-02-01T00:10:16.643Z,9.88
2023-02-01T00:12:43.228Z,9.43
2023-02-01T00:15:10.073Z,9.98
2023-02-01T00:17:36.623Z,10.05
2023-02-01T00:20:04.056Z,9.75
2023-02-01T00:22:30.560Z,10.70
2023-02-01T00:24:57.087Z,11.00
2023-02-01T00:27:23.620Z,11.10
2023-02-01T00:29:50.190Z,11.48
2023-02-01T00:32:16.753Z,11.93
2023-02-01T00:34:43.278Z,11.52
2023-02-01T00:37:10.025Z,12.18
2023-02-01T00:39:36.565Z,12.00
2023-02-01T00:42:03.210Z,11.48
2023-02-01T00:44:33.994Z,11.43
2023-02-01T00:47:01.129Z,11.57
2023-02-01T00:49:28.009Z,11.10
2023-02-01T00:51:54.657Z,11.23
2023-02-01T00:54:21.213Z,10.50
2023-02-01T00:56:47.694Z,10.27
2023-02-01T00:59:14.371Z,10.70
2023-02-01T01:01:40.946Z,10.13
2023-02-01T01:04:07.546Z,10.77
2023-02-01T01:06:35.109Z,9.40
2023-02-01T01:09:05.507Z,9.05
2023-02-01T01:11:34.696Z,8.85
2023-02-01T01:14:01.489Z,7.82
2023-02-01T01:16:29.757Z,7.90
2023-02-01T01:18:57.016Z,7.38
2023-02-01T01:21:24.235Z,7.70
2023-02-01T01:23:50.810Z,6.60
2023-02-01T01:26:20.838Z,7.28
2023-02-01T01:28:47.778Z,6.82
2023-02-01T01:31:17.193Z,6.00
2023-02-01T01:33:45.044Z,6.93
2023-02-01T01:36:12.603Z,6.10
2023-02-01T01:38:40.486Z,6.50
2023-02-01T01:41:07.500Z,5.70
2023-02-01T01:43:58.791Z,5.88
2023-02-01T01:46:33.268Z,5.57
2023-02-01T01:49:06.565Z,5.82
2023-02-01T01:51:39.357Z,5.43
2023-02-01T01:54:19.054Z,4.75
2023-02-01T01:56:49.510Z,5.18
2023-02-01T01:59:16.367Z,5.38
2023-02-01T02:01:43.406Z,4.97
2023-02-01T02:04:10.292Z,4.55
2023-02-01T02:06:48.641Z,4.65
2023-02-01T02:09:16.005Z,5.32
2023-02-01T02:11:42.853Z,5.70
2023-02-01T02:14:12.669Z,5.65
2023-02-01T02:16:59.139Z,4.43
2023-02-01T02:19:53.364Z,5.50
2023-02-01T02:22:36.773Z,5.05
2023-02-01T02:26:00.811Z,4.13
2023-02-01T02:29:03.549Z,4.53
2023-02-01T02:32:07.561Z,5.30
2023-02-01T02:34:41.204Z,4.72
2023-02-01T02:37:30.459Z,4.88
2023-02-01T02:40:22.965Z,5.38
2023-02-01T02:43:14.056Z,5.03
2023-02-01T02:46:10.924Z,5.28
2023-02-01T02:49:07.239Z,4.82
2023-02-01T02:52:16.130Z,4.85
2023-02-01T02:54:51.209Z,4.60
2023-02-01T02:57:41.831Z,5.50
2023-02-01T03:00:34.027Z,4.97
2023-02-01T03:03:19.848Z,4.70
2023-02-01T03:05:49.376Z,4.60
2023-02-01T03:08:21.276Z,6.60
2023-02-01T03:11:04.783Z,5.05
2023-02-01T03:13:41.500Z,4.63
2023-02-01T03:16:15.856Z,5.40
2023-02-01T03:19:03.130Z,5.15
2023-02-01T03:21:48.201Z,4.55
2023-02-01T03:24:20.104Z,4.57
2023-02-01T03:26:54.868Z,5.40
2023-02-01T03:29:28.350Z,5.70
2023-02-01T03:31:55.017Z,5.60
2023-02-01T03:34:21.922Z,5.22
2023-02-01T03:36:51.708Z,5.53
2023-02-01T03:39:35.601Z,6.73
2023-02-01T03:42:06.333Z,5.55
2023-02-01T03:44:33.709Z,5.65
2023-02-01T03:47:04.921Z,5.88
2023-02-01T03:49:43.785Z,5.75
2023-02-01T03:52:15.522Z,5.57
2023-02-01T03:54:44.055Z,5.30
2023-02-01T03:57:17.322Z,4.80
2023-02-01T03:59:45.948Z,5.20
2023-02-01T04:02:12.673Z,5.63
2023-02-01T04:04:39.215Z,5.15
2023-02-01T04:07:06.328Z,5.43
2023-02-01T04:09:32.885Z,5.45
2023-02-01T04:11:59.474Z,5.35
2023-02-01T04:14:25.962Z,5.00
2023-02-01T04:16:52.576Z,4.95
2023-02-01T04:19:19.143Z,5.18
2023-02-01T04:21:46.181Z,5.40
2023-02-01T04:24:12.757Z,4.38
2023-02-01T04:26:39.325Z,5.60
2023-02-01T04:29:05.913Z,4.60
2023-02-01T04:31:32.625Z,4.75
2023-02-01T04:33:59.185Z,4.25
2023-02-01T04:36:25.730Z,5.10
2023-02-01T04:38:52.710Z,4.82
2023-02-01T04:41:20.129Z,4.80
2023-02-01T04:43:47.690Z,4.35
2023-02-01T04:46:14.447Z,4.55
2023-02-01T04:48:40.962Z,5.55
2023-02-01T04:51:07.478Z,4.78
2023-02-01T04:53:33.974Z,4.80
2023-02-01T04:56:00.593Z,4.30
2023-02-01T04:58:27.152Z,4.50
2023-02-01T05:00:53.774Z,4.80
2023-02-01T05:03:20.638Z,4.47
2023-02-01T05:05:49.385Z,4.38
2023-02-01T05:08:16.602Z,5.68
2023-02-01T05:10:43.355Z,6.20
2023-02-01T05:13:30.066Z,4.80
2023-02-01T05:15:56.635Z,5.10
2023-02-01T05:18:23.212Z,3.78
2023-02-01T05:20:49.687Z,5.13
2023-02-01T05:23:17.153Z,4.57
2023-02-01T05:25:43.708Z,4.88
2023-02-01T05:28:10.587Z,4.30
2023-02-01T05:30:37.195Z,4.75
2023-02-01T05:33:04.455Z,4.45
2023-02-01T05:35:31.074Z,4.30
2023-02-01T05:37:57.578Z,4.60
2023-02-01T05:40:24.705Z,5.30
2023-02-01T05:42:51.417Z,4.72
2023-02-01T05:45:17.987Z,4.30
2023-02-01T05:47:44.521Z,4.25
2023-02-01T05:50:11.219Z,5.05
2023-02-01T05:52:37.785Z,4.72
2023-02-01T05:55:04.732Z,4.32
2023-02-01T05:57:31.388Z,4.60
2023-02-01T05:59:59.502Z,4.43
2023-02-01T06:02:27.103Z,4.82
2023-02-01T06:04:53.969Z,5.03
2023-02-01T06:07:20.547Z,4.78
2023-02-01T06:09:47.128Z,4.00
2023-02-01T06:12:13.765Z,4.50
2023-02-01T06:14:41.925Z,4.97
2023-02-01T06:17:09.241Z,4.75
2023-02-01T06:19:35.795Z,5.40
2023-02-01T06:22:02.312Z,4.53
2023-02-01T06:24:28.877Z,5.90
2023-02-01T06:26:55.454Z,5.13
2023-02-01T06:29:22.003Z,5.65
2023-02-01T06:31:48.583Z,4.60
2023-02-01T06:34:15.188Z,5.28
2023-02-01T06:36:41.685Z,4.22
2023-02-01T06:39:08.209Z,4.47
2023-02-01T06:41:35.630Z,5.05
2023-02-01T06:44:02.156Z,5.10
2023-02-01T06:46:28.791Z,5.38
2023-02-01T06:48:55.378Z,5.05
2023-02-01T06:51:22.727Z,5.32
2023-02-01T06:53:49.265Z,4.35
2023-02-01T06:56:15.880Z,4.13
2023-02-01T06:58:42.487Z,4.22
2023-02-01T07:01:10.785Z,4.50
2023-02-01T07:03:37.751Z,5.03
2023-02-01T07:06:05.388Z,4.85
2023-02-01T07:08:34.819Z,4.25
2023-02-01T07:11:09.185Z,5.10
2023-02-01T07:13:36.592Z,4.63
2023-02-01T07:16:05.565Z,4.43
2023-02-01T07:18:32.628Z,5.13
2023-02-01T07:20:59.658Z,5.50
2023-02-01T07:23:26.432Z,5.28
2023-02-01T07:26:00.826Z,4.38
2023-02-01T07:28:30.689Z,5.50
2023-02-01T07:31:03.851Z,5.25
2023-02-01T07:33:30.370Z,4.65
2023-02-01T07:35:56.827Z,5.50
2023-02-01T07:38:24.816Z,4.70
2023-02-01T07:40:51.351Z,4.30
2023-02-01T07:43:17.845Z,5.10
2023-02-01T07:45:44.427Z,4.75
2023-02-01T07:48:10.913Z,4.78
2023-02-01T07:50:37.384Z,4.47
2023-02-01T07:53:03.933Z,4.13
2023-02-01T07:55:30.835Z,4.45
2023-02-01T07:57:58.936Z,4.45
2023-02-01T08:00:44.793Z,4.95
2023-02-01T08:03:11.385Z,4.65
2023-02-01T08:05:38.776Z,5.00
2023-02-01T08:08:06.993Z,4.47
2023-02-01T08:10:34.380Z,4.53
2023-02-01T08:13:01.655Z,4.70
2023-02-01T08:15:29.638Z,5.57
2023-02-01T08:17:56.647Z,5.30
2023-02-01T08:20:24.572Z,4.72
2023-02-01T08:22:54.064Z,4.80
2023-02-01T08:25:21.169Z,4.68
2023-02-01T08:27:48.106Z,5.40
2023-02-01T08:30:14.801Z,5.28
2023-02-01T08:32:41.454Z,5.43
2023-02-01T08:35:09.039Z,4.72
2023-02-01T08:37:35.684Z,5.25
2023-02-01T08:40:02.374Z,4.38
2023-02-01T08:42:47.287Z,4.15
2023-02-01T08:45:14.609Z,5.65
2023-02-01T08:47:41.116Z,4.97
2023-02-01T08:50:08.603Z,5.10
2023-02-01T08:52:37.363Z,5.25
2023-02-01T08:55:05.059Z,5.88
2023-02-01T08:57:31.848Z,5.43
2023-02-01T08:59:58.376Z,4.75
2023-02-01T09:02:24.885Z,4.90
2023-02-01T09:04:51.383Z,5.10
2023-02-01T09:07:18.713Z,4.80
2023-02-01T09:09:46.887Z,5.03
2023-02-01T09:12:13.388Z,5.40
2023-02-01T09:14:39.949Z,4.53
2023-02-01T09:17:06.577Z,6.10
2023-02-01T09:19:33.200Z,5.63
2023-02-01T09:21:59.758Z,5.72
2023-02-01T09:24:26.453Z,5.68
2023-02-01T09:26:53.546Z,4.85
2023-02-01T09:29:20.344Z,4.72
2023-02-01T09:32:01.530Z,4.55
2023-02-01T09:34:30.118Z,5.18
2023-02-01T09:36:56.686Z,5.80
2023-02-01T09:39:23.261Z,4.70
2023-02-01T09:41:53.540Z,5.13
2023-02-01T09:44:43.295Z,5.00
2023-02-01T09:47:16.117Z,4.30
2023-02-01T09:50:03.804Z,5.78
2023-02-01T09:52:44.617Z,5.07
2023-02-01T09:55:19.389Z,4.75
2023-02-01T09:57:57.091Z,5.05
2023-02-01T10:00:30.228Z,5.07
2023-02-01T10:02:57.214Z,5.20
2023-02-01T10:05:38.482Z,4.40
2023-02-01T10:08:12.538Z,5.03
2023-02-01T10:10:45.121Z,5.50
2023-02-01T10:13:20.877Z,4.13
2023-02-01T10:16:03.275Z,5.45
2023-02-01T10:18:53.075Z,5.50
2023-02-01T10:21:26.449Z,5.75
2023-02-01T10:24:18.383Z,4.63
2023-02-01T10:27:11.059Z,4.85
2023-02-01T10:29:40.442Z,4.93
2023-02-01T10:32:13.993Z,4.75
2023-02-01T10:34:40.846Z,4.53
2023-02-01T10:37:20.377Z,5.05
2023-02-01T10:39:49.714Z,5.10
2023-02-01T10:42:25.626Z,3.72
2023-02-01T10:44:53.558Z,4.18
2023-02-01T10:47:20.091Z,4.30
2023-02-01T10:50:10.407Z,4.40
2023-02-01T10:52:49.573Z,4.88
2023-02-01T10:55:28.268Z,4.45
2023-02-01T10:58:00.041Z,4.25
2023-02-01T11:00:27.660Z,4.32
2023-02-01T11:02:55.425Z,4.32
2023-02-01T11:05:23.189Z,4.75
2023-02-01T11:07:51.306Z,4.70
2023-02-01T11:10:41.493Z,4.55
2023-02-01T11:13:18.819Z,4.43
2023-02-01T11:15:48.925Z,4.28
2023-02-01T11:18:20.923Z,5.47
2023-02-01T11:20:52.929Z,5.43
2023-02-01T11:23:21.347Z,4.47
2023-02-01T11:26:15.249Z,3.90
2023-02-01T11:28:48.423Z,5.40
2023-02-01T11:31:15.182Z,4.47
2023-02-01T11:33:56.471Z,4.60
2023-02-01T11:36:28.227Z,4.07
2023-02-01T11:39:13.044Z,5.10
2023-02-01T11:42:05.504Z,4.88
2023-02-01T11:44:38.125Z,4.40
2023-02-01T11:47:27.484Z,5.00
2023-02-01T11:49:59.320Z,5.00
2023-02-01T11:52:47.640Z,4.35
2023-02-01T11:55:14.338Z,5.50
2023-02-01T11:57:49.370Z,3.97
2023-02-01T12:00:31.205Z,4.70
2023-02-01T12:03:23.749Z,6.78
2023-02-01T12:06:04.370Z,5.25
2023-02-01T12:09:12.997Z,5.00
2023-02-01T12:11:52.976Z,5.25
2023-02-01T12:14:41.129Z,3.83
2023-02-01T12:17:33.929Z,4.75
2023-02-01T12:20:24.578Z,4.30
2023-02-01T12:23:11.965Z,5.03
2023-02-01T12:25:53.372Z,5.43
2023-02-01T12:31:14.345Z,5.05
2023-02-01T12:34:12.653Z,5.13
2023-02-01T12:36:55.785Z,4.75
2023-02-01T12:39:34.071Z,4.35
2023-02-01T12:42:20.793Z,4.13
2023-02-01T12:45:00.068Z,3.92
2023-02-01T12:47:52.595Z,4.28
2023-02-01T12:50:26.939Z,3.42
2023-02-01T12:52:55.463Z,3.85
2023-02-01T12:55:36.250Z,4.60
2023-02-01T12:58:23.469Z,4.80
2023-02-01T13:00:59.023Z,3.95
2023-02-01T13:03:28.268Z,4.65
2023-02-01T13:06:04.291Z,3.88
2023-02-01T13:08:41.109Z,3.58
2023-02-01T13:11:14.678Z,4.15
2023-02-01T13:13:43.820Z,4.07
2023-02-01T13:16:25.502Z,3.83
2023-02-01T13:18:52.997Z,3.40
2023-02-01T13:21:28.308Z,3.40
2023-02-01T13:23:54.850Z,2.90
2023-02-01T13:26:21.462Z,3.50
2023-02-01T13:29:03.728Z,3.40
2023-02-01T13:31:40.240Z,3.28
2023-02-01T13:34:29.963Z,3.08
2023-02-01T13:37:28.895Z,3.60
2023-02-01T13:40:04.501Z,4.25
2023-02-01T13:42:34.803Z,3.33
2023-02-01T13:45:13.896Z,3.30
2023-02-01T13:47:43.351Z,2.90
2023-02-01T13:50:18.820Z,3.10
2023-02-01T13:52:46.941Z,3.15
2023-02-01T13:55:23.004Z,2.65
2023-02-01T13:57:51.878Z,2.88
2023-02-01T14:00:27.348Z,3.53
2023-02-01T14:03:08.363Z,3.70
2023-02-01T14:05:35.353Z,2.67
2023-02-01T14:08:10.887Z,2.72
2023-02-01T14:10:58.246Z,3.50
2023-02-01T14:13:35.852Z,3.22
2023-02-01T14:16:05.583Z,2.53
2023-02-01T14:18:38.348Z,2.83
2023-02-01T14:21:31.934Z,3.22
2023-02-01T14:24:10.271Z,3.70
2023-02-01T14:26:50.652Z,2.85
2023-02-01T14:29:21.054Z,2.20
2023-02-01T14:31:59.345Z,2.33
2023-02-01T14:34:31.305Z,3.65
2023-02-01T14:37:05.169Z,3.03
2023-02-01T14:39:35.632Z,3.10
2023-02-01T14:42:14.363Z,3.10
2023-02-01T14:44:40.893Z,3.30
2023-02-01T14:47:26.040Z,3.53
2023-02-01T14:50:11.078Z,3.08
2023-02-01T14:52:44.445Z,3.05
2023-02-01T14:55:30.656Z,3.80
2023-02-01T14:57:59.139Z,2.97
2023-02-01T15:00:30.885Z,2.85
2023-02-01T15:03:22.759Z,3.00
2023-02-01T15:05:58.169Z,2.95
2023-02-01T15:08:31.892Z,3.00
2023-02-01T15:11:01.523Z,3.13
2023-02-01T15:13:29.377Z,4.40
2023-02-01T15:16:12.085Z,3.75
2023-02-01T15:18:39.344Z,4.15
2023-02-01T15:21:26.518Z,4.47
2023-02-01T15:24:11.194Z,2.85
2023-02-01T15:26:37.780Z,4.03
2023-02-01T15:29:04.334Z,3.40
2023-02-01T15:31:56.424Z,4.30
2023-02-01T15:34:23.076Z,3.50
2023-02-01T15:37:02.569Z,3.70
2023-02-01T15:39:31.935Z,4.17
2023-02-01T15:42:02.963Z,3.47
2023-02-01T15:44:41.286Z,4.20
2023-02-01T15:47:17.642Z,4.32
2023-02-01T15:49:47.082Z,3.30
2023-02-01T15:52:26.896Z,3.22
2023-02-01T15:54:56.155Z,3.55
2023-02-01T15:57:42.934Z,4.15
2023-02-01T16:00:26.091Z,3.55
2023-02-01T16:02:57.015Z,3.28
2023-02-01T16:05:39.195Z,3.70
2023-02-01T16:08:13.993Z,3.50
2023-02-01T16:10:46.377Z,3.90
2023-02-01T16:13:13.746Z,3.83
2023-02-01T16:15:40.311Z,4.13
2023-02-01T16:18:09.038Z,4.80
2023-02-01T16:20:37.061Z,3.33
2023-02-01T16:23:04.531Z,4.20
2023-02-01T16:25:31.374Z,3.30
2023-02-01T16:27:57.953Z,3.38
2023-02-01T16:30:25.264Z,3.60
2023-02-01T16:32:56.188Z,3.33
2023-02-01T16:35:28.839Z,4.15
2023-02-01T16:37:55.604Z,3.35
2023-02-01T16:40:22.875Z,4.10
2023-02-01T16:42:52.113Z,3.00
2023-02-01T16:45:19.717Z,3.72
2023-02-01T16:47:52.062Z,3.53
2023-02-01T16:50:25.869Z,3.80
2023-02-01T16:52:54.517Z,3.28
2023-02-01T16:55:25.158Z,3.67
2023-02-01T16:57:52.253Z,3.30
2023-02-01T17:00:24.931Z,3.53
2023-02-01T17:02:52.191Z,3.30
2023-02-01T17:05:18.870Z,3.95
2023-02-01T17:07:45.528Z,3.50
2023-02-01T17:10:33.451Z,4.00
2023-02-01T17:13:00.744Z,3.65
2023-02-01T17:15:28.834Z,3.90
2023-02-01T17:17:57.583Z,4.10
2023-02-01T17:20:25.360Z,4.13
2023-02-01T17:22:52.938Z,4.07
2023-02-01T17:25:22.466Z,4.10
2023-02-01T17:27:49.428Z,3.30
2023-02-01T17:30:16.668Z,4.22
2023-02-01T17:32:43.559Z,3.38
2023-02-01T17:35:21.047Z,3.45
2023-02-01T17:37:48.433Z,4.47
2023-02-01T17:40:15.336Z,4.30
2023-02-01T17:42:42.740Z,2.97
2023-02-01T17:45:23.735Z,3.22
2023-02-01T17:47:50.357Z,4.00
2023-02-01T17:50:17.452Z,3.35
2023-02-01T17:52:44.139Z,3.75
2023-02-01T17:55:19.281Z,3.65
2023-02-01T17:57:45.905Z,4.30
2023-02-01T18:00:13.693Z,3.85
2023-02-01T18:02:40.756Z,3.58
2023-02-01T18:05:15.871Z,3.13
2023-02-01T18:07:42.525Z,3.40
2023-02-01T18:10:10.486Z,4.00
2023-02-01T18:12:38.932Z,3.72
2023-02-01T18:15:31.974Z,3.85
2023-02-01T18:17:59.394Z,4.25
2023-02-01T18:20:26.842Z,3.25
2023-02-01T18:22:54.190Z,3.35
2023-02-01T18:25:30.381Z,3.78
2023-02-01T18:27:57.489Z,3.72
2023-02-01T18:30:28.404Z,4.43
2023-02-01T18:32:54.942Z,3.92
2023-02-01T18:35:24.586Z,3.53
2023-02-01T18:37:52.428Z,3.92
2023-02-01T18:40:21.626Z,3.83
2023-02-01T18:42:48.479Z,3.78
2023-02-01T18:45:27.432Z,3.55
2023-02-01T18:47:54.107Z,3.75
2023-02-01T18:50:20.657Z,4.07
2023-02-01T18:52:47.562Z,4.35
2023-02-01T18:55:14.512Z,4.38
2023-02-01T18:57:41.993Z,4.43
2023-02-01T19:00:10.333Z,4.38
2023-02-01T19:02:38.985Z,3.75
2023-02-01T19:05:07.975Z,4.80
2023-02-01T19:07:35.574Z,4.60
2023-02-01T19:10:04.536Z,3.95
2023-02-01T19:12:31.057Z,3.97
2023-02-01T19:14:57.728Z,3.95
2023-02-01T19:17:24.306Z,5.15
2023-02-01T19:19:51.465Z,5.05
2023-02-01T19:22:18.204Z,4.55
2023-02-01T19:24:45.185Z,4.60
2023-02-01T19:27:11.964Z,3.63
2023-02-01T19:29:38.629Z,4.22
2023-02-01T19:32:05.500Z,4.30
2023-02-01T19:34:32.830Z,4.38
2023-02-01T19:36:59.930Z,3.92
2023-02-01T19:39:26.632Z,5.05
2023-02-01T19:41:53.120Z,4.60
2023-02-01T19:44:19.666Z,4.82
2023-02-01T19:46:46.275Z,4.50
2023-02-01T19:49:12.875Z,3.85
2023-02-01T19:51:40.902Z,4.53
2023-02-01T19:54:09.335Z,4.50
2023-02-01T19:56:36.033Z,4.40
2023-02-01T19:59:03.512Z,3.78
2023-02-01T20:01:30.264Z,4.72
2023-02-01T20:04:01.858Z,5.07
2023-02-01T20:06:29.688Z,3.90
2023-02-01T20:08:56.664Z,4.28
2023-02-01T20:11:25.537Z,4.40
2023-02-01T20:13:55.785Z,5.03
2023-02-01T20:16:23.029Z,4.25
2023-02-01T20:18:49.924Z,4.53
2023-02-01T20:21:18.228Z,4.47
2023-02-01T20:23:47.901Z,4.40
2023-02-01T20:26:15.409Z,5.05
2023-02-01T20:28:41.967Z,3.78
2023-02-01T20:31:11.820Z,3.85
2023-02-01T20:33:38.501Z,5.05
2023-02-01T20:36:05.146Z,4.20
2023-02-01T20:38:31.718Z,4.13
2023-02-01T20:41:05.837Z,4.47
2023-02-01T20:43:33.231Z,4.72
2023-02-01T20:45:59.966Z,3.70
2023-02-01T20:48:26.777Z,3.67
2023-02-01T20:50:57.156Z,4.13
2023-02-01T20:53:26.994Z,4.47
2023-02-01T20:55:55.311Z,3.58
2023-02-01T20:58:22.121Z,4.07
2023-02-01T21:00:49.203Z,3.83
2023-02-01T21:03:16.145Z,4.03
2023-02-01T21:05:48.249Z,3.95
2023-02-01T21:08:14.822Z,4.32
2023-02-01T21:10:41.382Z,4.00
2023-02-01T21:13:08.009Z,3.90
2023-02-01T21:15:34.784Z,3.28
2023-02-01T21:18:02.192Z,3.40
2023-02-01T21:20:29.178Z,4.25
2023-02-01T21:22:56.016Z,3.83
2023-02-01T21:25:22.922Z,3.30
2023-02-01T21:27:49.639Z,4.82
2023-02-01T21:30:16.333Z,4.13
2023-02-01T21:32:42.876Z,4.57
2023-02-01T21:35:09.456Z,4.18
2023-02-01T21:37:36.000Z,3.63
2023-02-01T21:40:02.545Z,4.25
2023-02-01T21:42:30.944Z,4.25
2023-02-01T21:44:59.361Z,4.05
2023-02-01T21:47:26.864Z,4.63
2023-02-01T21:49:54.322Z,4.18
2023-02-01T21:52:21.938Z,5.05
2023-02-01T21:54:48.982Z,3.97
2023-02-01T21:57:15.476Z,3.85
2023-02-01T21:59:43.179Z,4.45
2023-02-01T22:02:18.440Z,4.03
2023-02-01T22:04:45.136Z,3.83
2023-02-01T22:07:12.164Z,4.70
2023-02-01T22:09:38.954Z,4.22
2023-02-01T22:12:05.530Z,4.07
2023-02-01T22:14:33.277Z,4.07
2023-02-01T22:17:00.591Z,4.10
2023-02-01T22:19:27.101Z,4.22
2023-02-01T22:21:53.632Z,3.92
2023-02-01T22:24:21.378Z,3.42
2023-02-01T22:26:48.330Z,4.05
2023-02-01T22:29:15.213Z,3.70
2023-02-01T22:31:42.425Z,4.78
2023-02-01T22:34:12.558Z,4.25
2023-02-01T22:36:40.026Z,4.07
2023-02-01T22:39:06.612Z,4.72
2023-02-01T22:41:33.097Z,4.32
2023-02-01T22:44:00.812Z,4.03
2023-02-01T22:46:28.580Z,3.80
2023-02-01T22:48:55.179Z,3.67
2023-02-01T22:51:27.092Z,3.80
2023-02-01T22:53:59.914Z,4.20
2023-02-01T22:56:30.016Z,3.72
2023-02-01T22:58:58.490Z,4.32
2023-02-01T23:01:25.438Z,2.97
2023-02-01T23:03:56.439Z,4.00
2023-02-01T23:06:22.928Z,4.57
2023-02-01T23:08:49.469Z,4.22
2023-02-01T23:11:16.041Z,4.70
2023-02-01T23:13:42.630Z,3.97
2023-02-01T23:16:11.317Z,3.78
2023-02-01T23:18:38.356Z,3.63
2023-02-01T23:21:10.636Z,4.57
2023-02-01T23:23:37.294Z,3.80
2023-02-01T23:26:04.726Z,3.50
2023-02-01T23:28:31.469Z,3.80
2023-02-01T23:30:58.143Z,3.55
2023-02-01T23:33:26.035Z,4.65
2023-02-01T23:35:57.113Z,4.35
2023-02-01T23:38:23.993Z,3.15
2023-02-01T23:40:52.017Z,4.30
2023-02-01T23:43:37.475Z,4.20
2023-02-01T23:46:04.234Z,3.92
2023-02-01T23:48:30.781Z,3.55
2023-02-01T23:50:57.325Z,3.88
2023-02-01T23:53:23.847Z,4.20
2023-02-01T23:55:54.314Z,4.07
2023-02-01T23:58:21.936Z,4.28
